ADDS METAR Data INFO
IDs: Format: Raw Decoded Include TAF

Data at: 0024 UTC 11 Dec 2017

KSLO 110015Z AUTO 34003KT 10SM CLR 04/M04 A3008 RMK AO2 T00361039
KSLO 102355Z AUTO 29004KT 10SM CLR 06/M04 A3008 RMK AO2 T00551039 10095 20055
KSLO 102335Z AUTO 28004KT 10SM CLR 06/M04 A3006 RMK AO2 T00581040
KSLO 102315Z AUTO 28005KT 10SM CLR 06/M04 A3006 RMK AO2 T00561039
KSLO 102255Z AUTO 27004KT 10SM CLR 06/M04 A3005 RMK AO2 T00621037
KSLO 102235Z AUTO 28005KT 10SM CLR 07/M04 A3005 RMK AO2 T00711037
KSLO 102215Z AUTO 29008KT 10SM CLR 08/M04 A3003 RMK AO2 T00781037
KSLO 102155Z AUTO 27007KT 10SM CLR 08/M03 A3002 RMK AO2 T00831035
KSLO 102135Z AUTO 27010KT 10SM CLR 09/M04 A3001 RMK AO2 T00871036
KSLO 102115Z AUTO 27011KT 10SM CLR 09/M04 A3000 RMK AO2 T00901037
KSLO 102055Z AUTO 27013G19KT 10SM CLR 09/M04 A3000 RMK AO2 T00931045
KSLO 102035Z AUTO 25013KT 10SM CLR 10/M04 A2999 RMK AO2 T00951039
KSLO 102015Z AUTO 25014KT 10SM CLR 09/M04 A2999 RMK AO2 T00921040
KSLO 101955Z AUTO 24011KT 10SM CLR 09/M04 A2999 RMK AO2 T00871038
KSLO 101935Z AUTO 23010KT 10SM CLR 08/M04 A2999 RMK AO2 T00761044
KSLO 101915Z AUTO 22013G18KT 10SM SCT110 06/M05 A2998 RMK AO2 T00631047
KSLO 101855Z AUTO 23016KT 10SM SCT110 07/M05 A2999 RMK AO2 T00661049
KSLO 101835Z AUTO 23014G20KT 10SM CLR 06/M05 A3000 RMK AO2 T00601050
KSLO 101815Z AUTO 22016G23KT 10SM CLR 07/M05 A3001 RMK AO2 T00651051
KSLO 101755Z AUTO 23017G22KT 10SM CLR 06/M05 A3001 RMK AO2 T00631052 10063 21046
KSLO 101735Z AUTO 23013G23KT 10SM CLR 06/M05 A3002 RMK AO2 T00561054
KSLO 101715Z AUTO 22016G25KT 10SM CLR 05/M05 A3003 RMK AO2 T00521055
KSLO 101655Z AUTO 21014G18KT 10SM CLR 04/M06 A3004 RMK AO2 T00411058
KSLO 101635Z AUTO 21015G21KT 10SM CLR 03/M06 A3005 RMK AO2 T00331062
KSLO 101615Z AUTO 20016G20KT 10SM CLR 03/M06 A3005 RMK AO2 T00261063
KSLO 101555Z AUTO 19016KT 10SM CLR 02/M06 A3007 RMK AO2 T00191065
KSLO 101535Z AUTO 20016G20KT 10SM CLR 01/M06 A3008 RMK AO2 T00121065
KSLO 101515Z AUTO 21016G20KT 10SM CLR 01/M06 A3009 RMK AO2 T00071064
KSLO 101455Z AUTO 21014KT 10SM CLR 00/M06 A3009 RMK AO2 T00011064
KSLO 101435Z AUTO 20013KT 10SM CLR M01/M07 A3010 RMK AO2 T10071066
KSLO 101415Z AUTO 21010G15KT 10SM CLR M02/M07 A3012 RMK AO2 T10161069
KSLO 101355Z AUTO 21012KT 10SM CLR M02/M07 A3013 RMK AO2 T10251071
KSLO 101335Z AUTO 22009KT 10SM CLR M03/M07 A3013 RMK AO2 T10321075
KSLO 101315Z AUTO 20010KT 10SM CLR M04/M08 A3013 RMK AO2 T10371077
KSLO 101255Z AUTO 20008KT 10SM CLR M04/M08 A3013 RMK AO2 T10401080
KSLO 101235Z AUTO 20008KT 10SM CLR M04/M08 A3014 RMK AO2 T10411080
KSLO 101215Z AUTO 21008KT 10SM CLR M04/M08 A3014 RMK AO2 T10421080
KSLO 101155Z AUTO 20008KT 10SM CLR M05/M08 A3014 RMK AO2 T10461080 11039 21060
KSLO 101135Z AUTO 19006KT 10SM CLR M05/M08 A3014 RMK AO2 T10461081
KSLO 101115Z AUTO 19005KT 10SM CLR M04/M08 A3015 RMK AO2 T10451077
KSLO 101055Z AUTO 21004KT 10SM CLR M05/M08 A3016 RMK AO2 T10511083
KSLO 101035Z AUTO 21005KT 10SM CLR M05/M08 A3016 RMK AO2 T10501082
KSLO 101015Z AUTO 18004KT 10SM CLR M05/M08 A3016 RMK AO2 T10461081
KSLO 100955Z AUTO 19004KT 10SM CLR M05/M08 A3016 RMK AO2 T10521084
KSLO 100935Z AUTO 20004KT 10SM SCT120 M05/M08 A3017 RMK AO2 T10491082
KSLO 100915Z AUTO 21004KT 10SM CLR M05/M08 A3018 RMK AO2 T10521085
KSLO 100855Z AUTO 21004KT 10SM CLR M05/M08 A3018 RMK AO2 T10541085
KSLO 100835Z AUTO 23005KT 10SM CLR M05/M08 A3018 RMK AO2 T10551084
KSLO 100815Z AUTO 23004KT 10SM CLR M05/M08 A3018 RMK AO2 T10521085
KSLO 100755Z AUTO 23004KT 10SM CLR M05/M08 A3019 RMK AO2 T10501085
KSLO 100735Z AUTO 24004KT 10SM CLR M05/M08 A3019 RMK AO2 T10491084
KSLO 100715Z AUTO 24004KT 10SM CLR M05/M08 A3019 RMK AO2 T10471085
KSLO 100655Z AUTO 24004KT 10SM CLR M05/M08 A3019 RMK AO2 T10511084
KSLO 100635Z AUTO 24004KT 10SM CLR M05/M08 A3019 RMK AO2 T10541084
KSLO 100615Z AUTO 26003KT 10SM CLR M04/M08 A3019 RMK AO2 T10421081
KSLO 100555Z AUTO 27003KT 10SM CLR M04/M08 A3019 RMK AO2 T10401083 10000 21040 400361040
KSLO 100535Z AUTO 27005KT 10SM CLR M03/M08 A3020 RMK AO2 T10351084
KSLO 100515Z AUTO 29006KT 10SM CLR M03/M08 A3020 RMK AO2 T10261085
KSLO 100455Z AUTO 29006KT 10SM CLR M02/M08 A3020 RMK AO2 T10251084
KSLO 100435Z AUTO 29006KT 10SM CLR M03/M08 A3020 RMK AO2 T10271082
KSLO 100415Z AUTO 27006KT 10SM CLR M03/M08 A3020 RMK AO2 T10271082
KSLO 100355Z AUTO 28005KT 10SM CLR M02/M08 A3020 RMK AO2 T10251085
KSLO 100335Z AUTO 29005KT 10SM CLR M02/M09 A3019 RMK AO2 T10221086
KSLO 100315Z AUTO 29005KT 10SM CLR M02/M09 A3019 RMK AO2 T10171088
KSLO 100255Z AUTO 30006KT 10SM CLR M02/M09 A3018 RMK AO2 T10181088
KSLO 100235Z AUTO 28006KT 10SM CLR M01/M09 A3018 RMK AO2 T10151088
KSLO 100215Z AUTO 30006KT 10SM CLR M01/M09 A3018 RMK AO2 T10101087
KSLO 100155Z AUTO 30008KT 10SM CLR M01/M08 A3017 RMK AO2 T10071085
KSLO 100135Z AUTO 29007KT 10SM SCT042 M01/M09 A3017 RMK AO2 T10061087
KSLO 100115Z AUTO 30007KT 10SM OVC042 00/M08 A3017 RMK AO2 T10031085
KSLO 100055Z AUTO 30005KT 10SM OVC044 00/M09 A3016 RMK AO2 T00001088
KSLO 100035Z AUTO 30005KT 10SM OVC044 00/M09 A3015 RMK AO2 T10021090
KSLO 100015Z AUTO 30007KT 10SM OVC044 00/M09 A3015 RMK AO2 T00001089
KSLO 092355Z AUTO 30009KT 10SM OVC044 00/M09 A3014 RMK AO2 T10011090 10036 21002
KSLO 092335Z AUTO 32009KT 10SM OVC044 00/M09 A3014 RMK AO2 T10011089
KSLO 092315Z AUTO 31005KT 10SM BKN044 00/M09 A3013 RMK AO2 T10021087
KSLO 092255Z AUTO 32010G15KT 10SM BKN044 00/M09 A3011 RMK AO2 T10011090
KSLO 092235Z AUTO 33011G17KT 10SM BKN044 00/M09 A3010 RMK AO2 T00001088
KSLO 092215Z AUTO 34016G20KT 10SM OVC044 01/M09 A3008 RMK AO2 T00051090
KSLO 092155Z AUTO 33017G21KT 10SM BKN044 01/M08 A3007 RMK AO2 T00101085
KSLO 092135Z AUTO 32015G19KT 10SM BKN046 01/M08 A3005 RMK AO2 T00141085
KSLO 092115Z AUTO 32011G17KT 10SM OVC046 02/M08 A3004 RMK AO2 T00171080
KSLO 092055Z AUTO 31016G22KT 10SM OVC046 02/M09 A3002 RMK AO2 T00191086
KSLO 092035Z AUTO 32014G23KT 10SM OVC048 02/M08 A3000 RMK AO2 T00211085
KSLO 092015Z AUTO 32017G24KT 10SM OVC048 02/M09 A2999 RMK AO2 T00231087
KSLO 091955Z AUTO 31013G21KT 10SM OVC050 02/M07 A2997 RMK AO2 T00241074
KSLO 091935Z AUTO 31017G25KT 10SM OVC050 03/M09 A2996 RMK AO2 T00251086
KSLO 091915Z AUTO 31019G25KT 10SM OVC050 03/M08 A2995 RMK AO2 T00271085
KSLO 091855Z AUTO 30017G21KT 10SM OVC050 03/M09 A2995 RMK AO2 T00301092
KSLO 091835Z AUTO 31018G24KT 10SM OVC048 03/M09 A2994 RMK AO2 T00291087
KSLO 091815Z AUTO 30018G25KT 10SM OVC048 03/M08 A2993 RMK AO2 T00271079
KSLO 091755Z AUTO 31015G20KT 10SM OVC050 03/M07 A2993 RMK AO2 T00261075 10031 21007
KSLO 091735Z AUTO 31012G23KT 10SM SCT041 OVC050 03/M09 A2992 RMK AO2 T00261091
KSLO 091715Z AUTO 31018G22KT 10SM SCT036 BKN042 OVC050 02/M07 A2991 RMK AO2 T00211070
KSLO 091655Z AUTO 32014G20KT 10SM OVC034 02/M06 A2991 RMK AO2 T00181060
KSLO 091635Z AUTO 32013KT 10SM BKN032 OVC050 02/M05 A2990 RMK AO2 T00211055
KSLO 091615Z AUTO 31013G18KT 10SM BKN030 OVC050 02/M04 A2990 RMK AO2 T00191045
KSLO 091555Z AUTO 29012G18KT 10SM BKN028 OVC044 01/M04 A2990 RMK AO2 T00131044
KSLO 091535Z AUTO 29012G15KT 10SM BKN028 OVC044 01/M04 A2988 RMK AO2 T00111042
KSLO 091515Z AUTO 28010G14KT 10SM BKN028 BKN034 OVC043 01/M04 A2988 RMK AO2 T00091040
KSLO 091455Z AUTO 29007G15KT 10SM SCT025 OVC036 01/M04 A2987 RMK AO2 T00071041
KSLO 091435Z AUTO 28008G14KT 10SM BKN024 BKN028 OVC034 01/M04 A2987 RMK AO2 T00051039
KSLO 091415Z AUTO 29011KT 10SM BKN021 OVC027 01/M04 A2986 RMK AO2 T00051037
KSLO 091355Z AUTO 29011G17KT 10SM BKN021 OVC026 01/M04 A2985 RMK AO2 T00051037
KSLO 091335Z AUTO 28008KT 10SM OVC023 00/M04 A2985 RMK AO2 T00011038
KSLO 091315Z AUTO 27010KT 10SM OVC023 00/M04 A2984 RMK AO2 T00001042
KSLO 091255Z AUTO 27009KT 10SM OVC023 00/M05 A2983 RMK AO2 T00001047
KSLO 091235Z AUTO 26009KT 10SM OVC023 00/M05 A2983 RMK AO2 T10011052